createdAt,value
2018-02-23T00:00:00.136Z,1020.81
2018-02-23T00:01:51.909Z,1020.85
2018-02-23T00:02:51.856Z,1020.84
2018-02-23T00:04:43.562Z,1020.84
2018-02-23T00:05:43.465Z,1020.85
2018-02-23T00:07:35.199Z,1020.86
2018-02-23T00:08:35.130Z,1020.82
2018-02-23T00:10:26.886Z,1020.79
2018-02-23T00:11:26.787Z,1020.75
2018-02-23T00:13:18.562Z,1020.77
2018-02-23T00:14:18.458Z,1020.78
2018-02-23T00:16:10.209Z,1020.77
2018-02-23T00:17:10.127Z,1020.76
2018-02-23T00:19:01.886Z,1020.73
2018-02-23T00:20:01.826Z,1020.71
2018-02-23T00:21:53.601Z,1020.64
2018-02-23T00:22:53.574Z,1020.66
2018-02-23T00:24:45.258Z,1020.69
2018-02-23T00:25:45.183Z,1020.72
2018-02-23T00:27:36.922Z,1020.68
2018-02-23T00:28:36.860Z,1020.67
2018-02-23T00:30:28.600Z,1020.67
2018-02-23T00:31:28.509Z,1020.70
2018-02-23T00:33:20.296Z,1020.72
2018-02-23T00:34:20.190Z,1020.77
2018-02-23T00:36:11.965Z,1020.77
2018-02-23T00:37:11.883Z,1020.81
2018-02-23T00:39:03.616Z,1020.81
2018-02-23T00:40:03.546Z,1020.83
2018-02-23T00:41:55.353Z,1020.82
2018-02-23T00:42:55.270Z,1020.87
2018-02-23T00:44:47.025Z,1020.80
2018-02-23T00:45:46.951Z,1020.81
2018-02-23T00:47:38.715Z,1020.79
2018-02-23T00:48:38.638Z,1020.80
2018-02-23T00:50:30.371Z,1020.78
2018-02-23T00:51:30.288Z,1020.79
2018-02-23T00:54:53.288Z,1020.72
2018-02-23T00:55:53.213Z,1020.73
2018-02-23T00:57:44.960Z,1020.70
2018-02-23T00:58:44.884Z,1020.72
2018-02-23T01:00:36.677Z,1020.68
2018-02-23T01:01:36.580Z,1020.73
2018-02-23T01:03:28.322Z,1020.66
2018-02-23T01:04:28.250Z,1020.67
2018-02-23T01:06:20.018Z,1020.73
2018-02-23T01:07:19.925Z,1020.73
2018-02-23T01:09:11.654Z,1020.74
2018-02-23T01:10:11.589Z,1020.73
2018-02-23T01:12:03.469Z,1020.73
2018-02-23T01:13:03.258Z,1020.69
2018-02-23T01:14:55.020Z,1020.68
2018-02-23T01:15:54.952Z,1020.62
2018-02-23T01:17:46.698Z,1020.65
2018-02-23T01:18:46.609Z,1020.58
2018-02-23T01:20:38.384Z,1020.63
2018-02-23T01:21:38.294Z,1020.64
2018-02-23T01:23:30.066Z,1020.67
2018-02-23T01:24:29.977Z,1020.62
2018-02-23T01:26:21.836Z,1020.64
2018-02-23T01:27:21.632Z,1020.62
2018-02-23T01:29:13.373Z,1020.66
2018-02-23T01:30:13.298Z,1020.63
2018-02-23T01:32:05.043Z,1020.64
2018-02-23T01:33:04.972Z,1020.63
2018-02-23T01:34:56.735Z,1020.65
2018-02-23T01:35:56.652Z,1020.63
2018-02-23T01:37:48.408Z,1020.60
2018-02-23T01:38:48.332Z,1020.60
2018-02-23T01:40:40.098Z,1020.57
2018-02-23T01:41:40.011Z,1020.56
2018-02-23T01:43:31.742Z,1020.61
2018-02-23T01:44:31.673Z,1020.57
2018-02-23T01:46:23.432Z,1020.54
2018-02-23T01:47:23.345Z,1020.52
2018-02-23T01:49:15.118Z,1020.51
2018-02-23T01:50:15.015Z,1020.50
2018-02-23T01:52:06.772Z,1020.56
2018-02-23T01:53:06.693Z,1020.54
2018-02-23T01:54:58.457Z,1020.50
2018-02-23T01:55:58.362Z,1020.51
2018-02-23T01:57:50.112Z,1020.51
2018-02-23T01:58:50.043Z,1020.51
2018-02-23T02:00:41.795Z,1020.51
2018-02-23T02:01:41.712Z,1020.51
2018-02-23T02:03:33.465Z,1020.48
2018-02-23T02:04:33.391Z,1020.51
2018-02-23T02:06:25.142Z,1020.45
2018-02-23T02:07:25.058Z,1020.42
2018-02-23T02:09:16.916Z,1020.43
2018-02-23T02:10:16.742Z,1020.40
2018-02-23T02:12:08.481Z,1020.42
2018-02-23T02:13:08.391Z,1020.40
2018-02-23T02:15:00.154Z,1020.39
2018-02-23T02:16:00.047Z,1020.41
2018-02-23T02:17:51.787Z,1020.42
2018-02-23T02:18:51.716Z,1020.44
2018-02-23T02:20:43.478Z,1020.43
2018-02-23T02:21:43.387Z,1020.44
2018-02-23T02:23:35.126Z,1020.40
2018-02-23T02:24:35.058Z,1020.46
2018-02-23T02:26:26.792Z,1020.43
2018-02-23T02:27:26.711Z,1020.50
2018-02-23T02:29:18.435Z,1020.53
2018-02-23T02:30:18.366Z,1020.49
2018-02-23T02:32:10.118Z,1020.45
2018-02-23T02:33:10.031Z,1020.44
2018-02-23T02:35:01.790Z,1020.45
2018-02-23T02:36:01.717Z,1020.42
2018-02-23T02:37:53.459Z,1020.46
2018-02-23T02:38:53.378Z,1020.46
2018-02-23T02:40:45.103Z,1020.48
2018-02-23T02:41:45.035Z,1020.53
2018-02-23T02:43:36.768Z,1020.48
2018-02-23T02:44:36.690Z,1020.44
2018-02-23T02:46:28.434Z,1020.49
2018-02-23T02:47:28.341Z,1020.46
2018-02-23T02:49:20.094Z,1020.45
2018-02-23T02:50:20.008Z,1020.46
2018-02-23T02:52:11.768Z,1020.39
2018-02-23T02:53:11.663Z,1020.38
2018-02-23T02:55:03.389Z,1020.36
2018-02-23T02:56:03.320Z,1020.38
2018-02-23T02:57:55.051Z,1020.35
2018-02-23T02:58:54.975Z,1020.39
2018-02-23T03:00:46.758Z,1020.41
2018-02-23T03:01:46.753Z,1020.41
2018-02-23T03:03:38.504Z,1020.40
2018-02-23T03:04:38.424Z,1020.42
2018-02-23T03:06:30.310Z,1020.38
2018-02-23T03:07:30.088Z,1020.39
2018-02-23T03:09:21.836Z,1020.37
2018-02-23T03:10:21.770Z,1020.40
2018-02-23T03:12:13.481Z,1020.39
2018-02-23T03:13:13.440Z,1020.39
2018-02-23T03:15:05.161Z,1020.43
2018-02-23T03:16:05.113Z,1020.44
2018-02-23T03:17:56.799Z,1020.46
2018-02-23T03:18:56.733Z,1020.47
2018-02-23T03:20:48.476Z,1020.45
2018-02-23T03:21:48.390Z,1020.48
2018-02-23T03:23:40.164Z,1020.46
2018-02-23T03:24:40.088Z,1020.51
2018-02-23T03:26:31.864Z,1020.49
2018-02-23T03:27:31.782Z,1020.47
2018-02-23T03:29:23.524Z,1020.44
2018-02-23T03:30:23.445Z,1020.42
2018-02-23T03:32:15.173Z,1020.42
2018-02-23T03:33:15.117Z,1020.37
2018-02-23T03:35:06.832Z,1020.38
2018-02-23T03:36:06.746Z,1020.40
2018-02-23T03:37:58.480Z,1020.43
2018-02-23T03:38:58.397Z,1020.53
2018-02-23T03:40:50.196Z,1020.52
2018-02-23T03:41:50.093Z,1020.56
2018-02-23T03:43:41.826Z,1020.55
2018-02-23T03:44:41.770Z,1020.50
2018-02-23T03:46:33.487Z,1020.51
2018-02-23T03:47:33.411Z,1020.54
2018-02-23T03:49:25.136Z,1020.59
2018-02-23T03:50:25.063Z,1020.61
2018-02-23T03:52:16.841Z,1020.59
2018-02-23T03:53:16.748Z,1020.62
2018-02-23T03:55:08.520Z,1020.64
2018-02-23T03:56:08.490Z,1020.65
2018-02-23T03:58:00.173Z,1020.66
2018-02-23T03:59:00.100Z,1020.65
2018-02-23T04:00:51.851Z,1020.68
2018-02-23T04:01:51.765Z,1020.72
2018-02-23T04:03:43.491Z,1020.71
2018-02-23T04:04:43.415Z,1020.72
2018-02-23T04:06:35.201Z,1020.69
2018-02-23T04:07:35.106Z,1020.63
2018-02-23T04:09:26.887Z,1020.65
2018-02-23T04:10:26.783Z,1020.62
2018-02-23T04:12:18.657Z,1020.66
2018-02-23T04:13:18.501Z,1020.67
2018-02-23T04:15:10.235Z,1020.68
2018-02-23T04:16:10.177Z,1020.65
2018-02-23T04:18:01.905Z,1020.63
2018-02-23T04:19:01.819Z,1020.64
2018-02-23T04:20:53.548Z,1020.67
2018-02-23T04:21:53.479Z,1020.65
2018-02-23T04:23:45.212Z,1020.70
2018-02-23T04:24:45.128Z,1020.70
2018-02-23T04:26:36.870Z,1020.69
2018-02-23T04:27:36.830Z,1020.67
2018-02-23T04:29:28.529Z,1020.70
2018-02-23T04:30:28.452Z,1020.68
2018-02-23T04:32:20.203Z,1020.72
2018-02-23T04:33:20.131Z,1020.73
2018-02-23T04:35:11.888Z,1020.69
2018-02-23T04:36:11.786Z,1020.70
2018-02-23T04:38:03.520Z,1020.70
2018-02-23T04:39:03.448Z,1020.74
2018-02-23T04:40:55.165Z,1020.74
2018-02-23T04:41:55.094Z,1020.79
2018-02-23T04:43:46.866Z,1020.83
2018-02-23T04:44:46.773Z,1020.85
2018-02-23T04:46:38.544Z,1020.86
2018-02-23T04:47:38.468Z,1020.87
2018-02-23T04:49:30.209Z,1020.88
2018-02-23T04:50:30.113Z,1020.89
2018-02-23T04:52:21.852Z,1020.90
2018-02-23T04:53:21.781Z,1020.91
2018-02-23T04:55:13.551Z,1020.95
2018-02-23T04:56:13.464Z,1020.99
2018-02-23T04:58:05.207Z,1020.99
2018-02-23T04:59:05.148Z,1020.98
2018-02-23T05:00:56.898Z,1020.97
2018-02-23T05:01:56.799Z,1020.96
2018-02-23T05:03:48.549Z,1021.00
2018-02-23T05:04:48.457Z,1021.00
2018-02-23T05:06:40.194Z,1021.00
2018-02-23T05:07:40.123Z,1020.99
2018-02-23T05:09:31.896Z,1021.00
2018-02-23T05:10:31.787Z,1021.04
2018-02-23T05:12:23.518Z,1021.02
2018-02-23T05:13:23.445Z,1021.02
2018-02-23T05:15:15.191Z,1021.00
2018-02-23T05:16:15.103Z,1020.99
2018-02-23T05:18:06.832Z,1021.01
2018-02-23T05:19:06.756Z,1021.02
2018-02-23T05:20:58.511Z,1021.02
2018-02-23T05:21:58.423Z,1021.06
2018-02-23T05:23:50.184Z,1021.09
2018-02-23T05:24:50.104Z,1021.07
2018-02-23T05:26:41.963Z,1021.05
2018-02-23T05:27:41.875Z,1021.10
2018-02-23T05:29:33.619Z,1021.08
2018-02-23T05:30:33.545Z,1021.10
2018-02-23T05:32:25.312Z,1021.03
2018-02-23T05:33:25.226Z,1021.08
2018-02-23T05:35:17.145Z,1020.99
2018-02-23T05:36:16.886Z,1021.05
2018-02-23T05:38:08.625Z,1021.03
2018-02-23T05:39:08.537Z,1021.01
2018-02-23T05:41:00.294Z,1021.02
2018-02-23T05:42:00.245Z,1020.97
2018-02-23T05:43:51.967Z,1020.99
2018-02-23T05:44:51.899Z,1020.96
2018-02-23T05:46:43.636Z,1020.95
2018-02-23T05:47:43.551Z,1020.98
2018-02-23T05:49:35.299Z,1021.01
2018-02-23T05:50:35.247Z,1021.03
2018-02-23T05:52:26.970Z,1021.05
2018-02-23T05:53:26.888Z,1021.10
2018-02-23T05:55:18.624Z,1021.08
2018-02-23T05:56:18.572Z,1021.08
2018-02-23T05:58:10.300Z,1021.07
2018-02-23T05:59:10.212Z,1021.15
2018-02-23T06:01:01.947Z,1021.15
2018-02-23T06:02:01.885Z,1021.19
2018-02-23T06:03:53.670Z,1021.14
2018-02-23T06:04:53.586Z,1021.23
2018-02-23T06:06:45.426Z,1021.21
2018-02-23T06:07:45.314Z,1021.21
2018-02-23T06:09:37.125Z,1021.23
2018-02-23T06:10:36.985Z,1021.29
2018-02-23T06:12:28.742Z,1021.34
2018-02-23T06:13:28.648Z,1021.34
2018-02-23T06:15:20.383Z,1021.38
2018-02-23T06:16:20.309Z,1021.34
2018-02-23T06:18:12.060Z,1021.36
2018-02-23T06:19:11.975Z,1021.36
2018-02-23T06:21:03.717Z,1021.39
2018-02-23T06:22:03.634Z,1021.41
2018-02-23T06:23:55.375Z,1021.41
2018-02-23T06:24:55.306Z,1021.43
2018-02-23T06:26:47.033Z,1021.47
2018-02-23T06:27:46.981Z,1021.50
2018-02-23T06:29:38.702Z,1021.52
2018-02-23T06:30:38.615Z,1021.53
2018-02-23T06:32:30.381Z,1021.59
2018-02-23T06:33:30.345Z,1021.59
2018-02-23T06:35:22.050Z,1021.60
2018-02-23T06:36:21.966Z,1021.62
2018-02-23T06:38:13.721Z,1021.64
2018-02-23T06:39:13.649Z,1021.66
2018-02-23T06:41:05.358Z,1021.70
2018-02-23T06:42:05.287Z,1021.73
2018-02-23T06:43:57.047Z,1021.70
2018-02-23T06:44:56.955Z,1021.74
2018-02-23T06:46:48.675Z,1021.70
2018-02-23T06:47:48.603Z,1021.74
2018-02-23T06:49:40.368Z,1021.73
2018-02-23T06:50:40.274Z,1021.73
2018-02-23T06:52:32.033Z,1021.74
2018-02-23T06:53:31.958Z,1021.70
2018-02-23T06:55:23.715Z,1021.75
2018-02-23T06:56:23.633Z,1021.75
2018-02-23T06:58:15.369Z,1021.68
2018-02-23T06:59:15.289Z,1021.77
2018-02-23T07:01:07.041Z,1021.77
2018-02-23T07:02:06.960Z,1021.74
2018-02-23T07:03:58.701Z,1021.78
2018-02-23T07:04:58.632Z,1021.83
2018-02-23T07:06:50.410Z,1021.75
2018-02-23T07:07:50.281Z,1021.83
2018-02-23T07:09:42.084Z,1021.77
2018-02-23T07:10:41.963Z,1021.80
2018-02-23T07:12:33.712Z,1021.78
2018-02-23T07:13:33.642Z,1021.78
2018-02-23T07:15:25.416Z,1021.83
2018-02-23T07:16:25.376Z,1021.84
2018-02-23T07:18:17.894Z,1021.90
2018-02-23T07:19:16.977Z,1021.91
2018-02-23T07:21:08.768Z,1021.91
2018-02-23T07:22:08.675Z,1021.93
2018-02-23T07:24:00.460Z,1021.91
2018-02-23T07:25:00.365Z,1021.92
2018-02-23T07:26:52.131Z,1021.95
2018-02-23T07:27:52.037Z,1021.96
2018-02-23T07:29:43.810Z,1021.99
2018-02-23T07:30:43.772Z,1022.01
2018-02-23T07:32:35.500Z,1022.11
2018-02-23T07:33:35.412Z,1022.15
2018-02-23T07:35:27.181Z,1022.25
2018-02-23T07:36:27.076Z,1022.32
2018-02-23T07:38:18.967Z,1022.26
2018-02-23T07:39:18.758Z,1022.19
2018-02-23T07:41:10.546Z,1022.31
2018-02-23T07:42:10.443Z,1022.38
2018-02-23T07:44:02.430Z,1022.40
2018-02-23T07:45:02.361Z,1022.38
2018-02-23T07:46:54.127Z,1022.40
2018-02-23T07:47:54.032Z,1022.51
2018-02-23T07:49:46.086Z,1022.56
2018-02-23T07:50:45.954Z,1022.66
2018-02-23T07:52:37.712Z,1022.65
2018-02-23T07:53:37.630Z,1022.63
2018-02-23T07:55:29.408Z,1022.53
2018-02-23T07:56:29.417Z,1022.59
2018-02-23T07:58:21.106Z,1022.60
2018-02-23T07:59:21.007Z,1022.61
2018-02-23T08:01:12.790Z,1022.64
2018-02-23T08:02:12.723Z,1022.59
2018-02-23T08:04:04.502Z,1022.77
2018-02-23T08:05:04.433Z,1022.82
2018-02-23T08:06:56.166Z,1022.93
2018-02-23T08:07:56.122Z,1022.97
2018-02-23T08:09:48.031Z,1022.92
2018-02-23T08:10:47.826Z,1022.87
2018-02-23T08:12:39.633Z,1022.98
2018-02-23T08:13:39.517Z,1022.91
2018-02-23T08:15:31.318Z,1022.85
2018-02-23T08:16:31.294Z,1022.84
2018-02-23T08:18:23.055Z,1022.83
2018-02-23T08:19:23.013Z,1022.77
2018-02-23T08:21:15.466Z,1022.73
2018-02-23T08:22:14.666Z,1022.81
2018-02-23T08:24:06.936Z,1022.84
2018-02-23T08:25:06.861Z,1022.90
2018-02-23T08:26:58.656Z,1022.80
2018-02-23T08:27:58.804Z,1022.81
2018-02-23T08:29:50.462Z,1022.67
2018-02-23T08:30:50.332Z,1022.68
2018-02-23T08:32:42.125Z,1022.81
2018-02-23T08:33:42.062Z,1022.82
2018-02-23T08:35:33.854Z,1022.81
2018-02-23T08:36:33.758Z,1022.84
2018-02-23T08:38:25.581Z,1022.91
2018-02-23T08:39:25.482Z,1022.82
2018-02-23T08:41:17.279Z,1022.96
2018-02-23T08:42:17.184Z,1023.02
2018-02-23T08:44:08.971Z,1022.96
2018-02-23T08:45:08.910Z,1023.02
2018-02-23T08:47:00.734Z,1023.07
2018-02-23T08:48:00.627Z,1023.17
2018-02-23T08:49:52.436Z,1023.19
2018-02-23T08:50:52.402Z,1023.23
2018-02-23T08:52:44.161Z,1023.29
2018-02-23T08:53:44.117Z,1023.28
2018-02-23T08:55:35.946Z,1023.32
2018-02-23T08:56:35.855Z,1023.34
2018-02-23T08:58:27.628Z,1023.49
2018-02-23T08:59:27.563Z,1023.41
2018-02-23T09:01:19.396Z,1023.55
2018-02-23T09:02:19.267Z,1023.63
2018-02-23T09:04:11.059Z,1023.68
2018-02-23T09:05:10.993Z,1023.68
2018-02-23T09:07:02.788Z,1023.86
2018-02-23T09:08:02.801Z,1023.81
2018-02-23T09:09:54.614Z,1024.02
2018-02-23T09:10:54.467Z,1024.06
2018-02-23T09:12:46.290Z,1024.16
2018-02-23T09:13:46.274Z,1024.07
2018-02-23T09:15:38.050Z,1023.90
2018-02-23T09:16:37.944Z,1023.75
2018-02-23T09:18:29.784Z,1023.78
2018-02-23T09:19:29.710Z,1023.68
2018-02-23T09:21:21.504Z,1023.70
2018-02-23T09:22:21.414Z,1023.66
2018-02-23T09:24:13.198Z,1023.51
2018-02-23T09:25:13.144Z,1023.52
2018-02-23T09:27:04.925Z,1023.33
2018-02-23T09:28:04.865Z,1023.40
2018-02-23T09:29:56.632Z,1023.33
2018-02-23T09:30:56.574Z,1023.30
2018-02-23T09:32:48.467Z,1023.27
2018-02-23T09:33:48.363Z,1023.23
2018-02-23T09:35:40.228Z,1023.31
2018-02-23T09:36:40.095Z,1023.24
2018-02-23T09:38:31.895Z,1023.26
2018-02-23T09:39:31.835Z,1023.27
2018-02-23T09:41:23.759Z,1023.16
2018-02-23T09:42:23.694Z,1023.20
2018-02-23T09:44:15.492Z,1023.15
2018-02-23T09:45:15.440Z,1023.17
2018-02-23T09:47:07.209Z,1023.11
2018-02-23T09:48:07.211Z,1023.14
2018-02-23T09:49:58.952Z,1023.09
2018-02-23T09:50:58.914Z,1023.16
2018-02-23T09:52:50.756Z,1023.17
2018-02-23T09:53:50.643Z,1023.14
2018-02-23T09:55:42.428Z,1023.21
2018-02-23T09:56:42.430Z,1023.18
2018-02-23T09:58:34.168Z,1023.17
2018-02-23T09:59:34.094Z,1023.16
2018-02-23T10:01:25.879Z,1023.17
2018-02-23T10:02:25.948Z,1023.14
2018-02-23T10:04:17.640Z,1023.17
2018-02-23T10:05:17.589Z,1023.24
2018-02-23T10:07:09.342Z,1023.21
2018-02-23T10:08:09.372Z,1023.26
2018-02-23T10:10:01.361Z,1023.20
2018-02-23T10:11:01.230Z,1023.16
2018-02-23T10:12:52.970Z,1023.11
2018-02-23T10:13:52.899Z,1023.13
2018-02-23T10:15:44.642Z,1023.10
2018-02-23T10:16:44.595Z,1023.11
2018-02-23T10:18:36.408Z,1023.08
2018-02-23T10:19:36.330Z,1023.03
2018-02-23T10:21:28.094Z,1023.06
2018-02-23T10:22:28.035Z,1023.03
2018-02-23T10:24:19.814Z,1023.13
2018-02-23T10:25:19.749Z,1023.05
2018-02-23T10:27:11.618Z,1023.12
2018-02-23T10:28:11.564Z,1023.12
2018-02-23T10:30:03.345Z,1023.02
2018-02-23T10:31:03.456Z,1023.04
2018-02-23T10:32:55.673Z,1022.91
2018-02-23T10:33:55.620Z,1022.95
2018-02-23T10:35:47.398Z,1022.92
2018-02-23T10:36:47.312Z,1022.93
2018-02-23T10:38:39.116Z,1022.84
2018-02-23T10:39:39.017Z,1022.87
2018-02-23T10:41:30.797Z,1022.86
2018-02-23T10:42:30.722Z,1022.92
2018-02-23T10:44:22.611Z,1022.79
2018-02-23T10:45:22.597Z,1022.82
2018-02-23T10:47:14.339Z,1022.84
2018-02-23T10:48:14.261Z,1022.82
2018-02-23T10:50:06.073Z,1022.81
2018-02-23T10:51:05.998Z,1022.80
2018-02-23T10:52:57.794Z,1022.81
2018-02-23T10:53:57.757Z,1022.79
2018-02-23T10:55:49.513Z,1022.76
2018-02-23T10:56:49.460Z,1022.75
2018-02-23T10:58:41.256Z,1022.71
2018-02-23T10:59:41.159Z,1022.70
2018-02-23T11:01:32.954Z,1022.65
2018-02-23T11:02:32.854Z,1022.63
2018-02-23T11:04:24.615Z,1022.61
2018-02-23T11:05:24.578Z,1022.65
2018-02-23T11:07:16.417Z,1022.71
2018-02-23T11:08:16.280Z,1022.65
2018-02-23T11:10:08.088Z,1022.60
2018-02-23T11:11:08.002Z,1022.58
2018-02-23T11:12:59.842Z,1022.53
2018-02-23T11:13:59.770Z,1022.57
2018-02-23T11:15:51.668Z,1022.53
2018-02-23T11:16:51.492Z,1022.49
2018-02-23T11:18:43.286Z,1022.54
2018-02-23T11:19:43.181Z,1022.55
2018-02-23T11:21:34.988Z,1022.49
2018-02-23T11:22:34.910Z,1022.49
2018-02-23T11:24:26.672Z,1022.55
2018-02-23T11:25:26.737Z,1022.45
2018-02-23T11:27:18.431Z,1022.42
2018-02-23T11:28:18.318Z,1022.41
2018-02-23T11:30:10.187Z,1022.43
2018-02-23T11:31:10.020Z,1022.47
2018-02-23T11:33:01.917Z,1022.42
2018-02-23T11:34:01.744Z,1022.39
2018-02-23T11:35:53.561Z,1022.44
2018-02-23T11:36:53.435Z,1022.42
2018-02-23T11:38:45.218Z,1022.39
2018-02-23T11:39:45.164Z,1022.33
2018-02-23T11:41:37.029Z,1022.32
2018-02-23T11:42:36.891Z,1022.31
2018-02-23T11:44:28.619Z,1022.27
2018-02-23T11:45:28.546Z,1022.26
2018-02-23T11:47:20.324Z,1022.22
2018-02-23T11:48:20.273Z,1022.26
2018-02-23T11:50:12.092Z,1022.25
2018-02-23T11:51:11.988Z,1022.15
2018-02-23T11:53:04.443Z,1022.19
2018-02-23T11:54:03.797Z,1022.13
2018-02-23T11:55:55.636Z,1022.17
2018-02-23T11:56:55.513Z,1022.17
2018-02-23T11:58:47.275Z,1022.23
2018-02-23T11:59:47.226Z,1022.15
2018-02-23T12:01:38.966Z,1022.20
2018-02-23T12:02:38.877Z,1022.13
2018-02-23T12:04:30.638Z,1022.17
2018-02-23T12:05:30.563Z,1022.16
2018-02-23T12:07:22.325Z,1022.17
2018-02-23T12:08:22.314Z,1022.14
2018-02-23T12:10:14.051Z,1022.13
2018-02-23T12:11:13.952Z,1022.27
2018-02-23T12:13:05.705Z,1022.17
2018-02-23T12:14:05.656Z,1022.18
2018-02-23T12:15:57.467Z,1022.14
2018-02-23T12:16:57.345Z,1022.14
2018-02-23T12:18:49.119Z,1022.19
2018-02-23T12:19:49.040Z,1022.19
2018-02-23T12:21:40.821Z,1022.16
2018-02-23T12:22:40.778Z,1022.19
2018-02-23T12:24:32.617Z,1022.18
2018-02-23T12:25:32.521Z,1022.22
2018-02-23T12:27:24.460Z,1022.16
2018-02-23T12:28:24.525Z,1022.12
2018-02-23T12:30:16.136Z,1022.17
2018-02-23T12:31:16.068Z,1022.12
2018-02-23T12:33:07.819Z,1022.12
2018-02-23T12:34:07.788Z,1022.11
2018-02-23T12:35:59.509Z,1022.05
2018-02-23T12:36:59.450Z,1022.06
2018-02-23T12:38:51.299Z,1022.04
2018-02-23T12:39:51.108Z,1022.03
2018-02-23T12:41:42.974Z,1022.04
2018-02-23T12:42:42.834Z,1022.08
2018-02-23T12:44:34.705Z,1021.99
2018-02-23T12:45:34.586Z,1021.93
2018-02-23T12:47:26.336Z,1022.03
2018-02-23T12:48:26.268Z,1022.02
2018-02-23T12:50:18.007Z,1021.98
2018-02-23T12:51:17.936Z,1021.97
2018-02-23T12:53:09.751Z,1021.98
2018-02-23T12:54:09.614Z,1021.97
2018-02-23T12:56:01.366Z,1021.97
2018-02-23T12:57:01.940Z,1021.93
2018-02-23T12:58:53.062Z,1022.03
2018-02-23T12:59:52.960Z,1022.02
2018-02-23T13:01:44.742Z,1022.07
2018-02-23T13:02:44.689Z,1022.00
2018-02-23T13:04:36.415Z,1022.03
2018-02-23T13:05:36.377Z,1022.01
2018-02-23T13:07:28.781Z,1021.95
2018-02-23T13:08:28.303Z,1022.01
2018-02-23T13:10:20.015Z,1022.01
2018-02-23T13:11:19.916Z,1022.01
2018-02-23T13:13:11.686Z,1022.03
2018-02-23T13:14:11.594Z,1022.03
2018-02-23T13:16:03.339Z,1021.96
2018-02-23T13:17:03.259Z,1021.97
2018-02-23T13:18:55.231Z,1022.00
2018-02-23T13:19:55.051Z,1022.04
2018-02-23T13:21:46.893Z,1022.05
2018-02-23T13:22:46.839Z,1022.06
2018-02-23T13:24:38.803Z,1021.98
2018-02-23T13:25:38.608Z,1021.99
2018-02-23T13:27:30.533Z,1021.93
2018-02-23T13:28:30.409Z,1021.97
2018-02-23T13:30:22.185Z,1021.94
2018-02-23T13:31:22.099Z,1021.97
2018-02-23T13:33:13.957Z,1021.94
2018-02-23T13:34:13.798Z,1021.90
2018-02-23T13:36:05.598Z,1021.87
2018-02-23T13:37:05.540Z,1021.92
2018-02-23T13:38:57.262Z,1021.76
2018-02-23T13:39:57.240Z,1021.88
2018-02-23T13:41:48.916Z,1021.85
2018-02-23T13:42:49.003Z,1021.91
2018-02-23T13:44:40.621Z,1021.81
2018-02-23T13:45:40.529Z,1021.83
2018-02-23T13:47:32.594Z,1021.90
2018-02-23T13:48:32.378Z,1021.97
2018-02-23T13:50:24.221Z,1021.88
2018-02-23T13:51:24.252Z,1021.97
2018-02-23T13:53:15.947Z,1021.89
2018-02-23T13:54:15.840Z,1021.94
2018-02-23T13:56:07.708Z,1021.92
2018-02-23T13:57:07.500Z,1021.93
2018-02-23T13:58:59.370Z,1021.94
2018-02-23T13:59:59.244Z,1021.96
2018-02-23T14:01:50.994Z,1021.94
2018-02-23T14:02:50.920Z,1021.96
2018-02-23T14:04:42.803Z,1021.93
2018-02-23T14:05:42.631Z,1021.93
2018-02-23T14:07:34.467Z,1021.97
2018-02-23T14:08:34.317Z,1021.96
2018-02-23T14:10:26.133Z,1021.89
2018-02-23T14:11:26.038Z,1021.87
2018-02-23T14:13:17.824Z,1021.92
2018-02-23T14:14:17.797Z,1021.89
2018-02-23T14:16:09.640Z,1021.89
2018-02-23T14:17:09.438Z,1021.83
2018-02-23T14:19:01.224Z,1021.86
2018-02-23T14:20:01.135Z,1021.77
2018-02-23T14:21:53.026Z,1021.83
2018-02-23T14:22:52.977Z,1021.85
2018-02-23T14:24:44.757Z,1021.84
2018-02-23T14:25:44.673Z,1021.83
2018-02-23T14:27:36.459Z,1021.83
2018-02-23T14:28:36.371Z,1021.82
2018-02-23T14:30:28.150Z,1021.75
2018-02-23T14:31:28.071Z,1021.81
2018-02-23T14:33:19.872Z,1021.77
2018-02-23T14:34:19.788Z,1021.76
2018-02-23T14:36:11.608Z,1021.75
2018-02-23T14:37:11.535Z,1021.75
2018-02-23T14:39:03.262Z,1021.78
2018-02-23T14:40:03.141Z,1021.77
2018-02-23T14:41:54.897Z,1021.84
2018-02-23T14:42:54.821Z,1021.85
2018-02-23T14:44:46.701Z,1021.85
2018-02-23T14:45:46.634Z,1021.91
2018-02-23T14:47:38.496Z,1021.88
2018-02-23T14:48:38.233Z,1021.85
2018-02-23T14:50:29.991Z,1021.85
2018-02-23T14:51:29.914Z,1021.84
2018-02-23T14:53:21.793Z,1021.90
2018-02-23T14:54:21.709Z,1021.90
2018-02-23T14:56:13.492Z,1021.86
2018-02-23T14:57:13.385Z,1021.87
2018-02-23T14:59:05.305Z,1021.92
2018-02-23T15:00:05.251Z,1021.96
2018-02-23T15:01:57.010Z,1021.91
2018-02-23T15:02:56.970Z,1021.94
2018-02-23T15:04:48.732Z,1021.93
2018-02-23T15:05:48.623Z,1021.94
2018-02-23T15:07:40.369Z,1021.89
2018-02-23T15:08:40.300Z,1021.89
2018-02-23T15:10:32.169Z,1021.86
2018-02-23T15:11:32.272Z,1021.87
2018-02-23T15:13:23.947Z,1021.86
2018-02-23T15:14:23.889Z,1021.91
2018-02-23T15:16:15.629Z,1021.88
2018-02-23T15:17:15.596Z,1021.86
2018-02-23T15:19:07.292Z,1021.89
2018-02-23T15:20:07.222Z,1021.89
2018-02-23T15:21:59.053Z,1021.74
2018-02-23T15:22:58.929Z,1021.78
2018-02-23T15:24:50.777Z,1021.77
2018-02-23T15:25:51.036Z,1021.78
2018-02-23T15:27:42.458Z,1021.78
2018-02-23T15:28:42.405Z,1021.81
2018-02-23T15:30:34.213Z,1021.75
2018-02-23T15:31:34.301Z,1021.79
2018-02-23T15:33:25.837Z,1021.73
2018-02-23T15:34:25.766Z,1021.79
2018-02-23T15:36:17.533Z,1021.80
2018-02-23T15:37:17.493Z,1021.76
2018-02-23T15:39:09.265Z,1021.78
2018-02-23T15:40:09.203Z,1021.74
2018-02-23T15:42:01.187Z,1021.77
2018-02-23T15:43:01.106Z,1021.75
2018-02-23T15:44:52.930Z,1021.73
2018-02-23T15:45:52.845Z,1021.78
2018-02-23T15:47:44.753Z,1021.77
2018-02-23T15:48:44.676Z,1021.78
2018-02-23T15:50:36.513Z,1021.78
2018-02-23T15:51:36.522Z,1021.76
2018-02-23T15:53:28.135Z,1021.76
2018-02-23T15:54:28.070Z,1021.83
2018-02-23T15:56:19.865Z,1021.84
2018-02-23T15:57:19.749Z,1021.86
2018-02-23T15:59:11.553Z,1021.84
2018-02-23T16:00:11.460Z,1021.83
2018-02-23T16:02:03.293Z,1021.89
2018-02-23T16:03:03.279Z,1021.85
2018-02-23T16:04:54.939Z,1021.85
2018-02-23T16:05:54.783Z,1021.87
2018-02-23T16:07:46.668Z,1021.85
2018-02-23T16:08:46.557Z,1021.82
2018-02-23T16:10:38.300Z,1021.79
2018-02-23T16:11:38.287Z,1021.84
2018-02-23T16:13:30.192Z,1021.88
2018-02-23T16:14:30.018Z,1021.87
2018-02-23T16:16:21.818Z,1021.88
2018-02-23T16:17:21.751Z,1021.86
2018-02-23T16:19:13.531Z,1021.86
2018-02-23T16:20:13.456Z,1021.86
2018-02-23T16:22:05.333Z,1021.83
2018-02-23T16:23:05.411Z,1021.84
2018-02-23T16:24:57.060Z,1021.86
2018-02-23T16:25:56.992Z,1021.88
2018-02-23T16:27:48.804Z,1021.89
2018-02-23T16:28:48.676Z,1021.86
2018-02-23T16:30:40.452Z,1021.84
2018-02-23T16:31:40.361Z,1021.88
2018-02-23T16:33:32.420Z,1021.85
2018-02-23T16:34:32.392Z,1021.85
2018-02-23T16:36:24.205Z,1021.85
2018-02-23T16:37:24.205Z,1021.84
2018-02-23T16:39:15.829Z,1021.81
2018-02-23T16:40:15.741Z,1021.82
2018-02-23T16:42:07.609Z,1021.77
2018-02-23T16:43:07.495Z,1021.78
2018-02-23T16:44:59.222Z,1021.72
2018-02-23T16:45:59.157Z,1021.75
2018-02-23T16:47:50.840Z,1021.75
2018-02-23T16:48:50.858Z,1021.78
2018-02-23T16:50:42.520Z,1021.78
2018-02-23T16:51:42.439Z,1021.76
2018-02-23T16:53:34.209Z,1021.78
2018-02-23T16:54:34.257Z,1021.79
2018-02-23T16:56:26.026Z,1021.78
2018-02-23T16:57:25.871Z,1021.79
2018-02-23T16:59:17.702Z,1021.77
2018-02-23T17:00:17.558Z,1021.84
2018-02-23T17:02:09.269Z,1021.82
2018-02-23T17:03:09.183Z,1021.79
2018-02-23T17:05:00.952Z,1021.83
2018-02-23T17:06:00.883Z,1021.78
2018-02-23T17:07:52.890Z,1021.77
2018-02-23T17:08:52.757Z,1021.72
2018-02-23T17:10:44.284Z,1021.75
2018-02-23T17:11:44.213Z,1021.74
2018-02-23T17:13:36.114Z,1021.76
2018-02-23T17:14:36.036Z,1021.73
2018-02-23T17:16:28.036Z,1021.80
2018-02-23T17:17:27.783Z,1021.80
2018-02-23T17:19:19.572Z,1021.80